Time;durP1;ratioP1;P1;durP2;ratioP2;P2;SDS_P1;SDS_P2;PMS_P1;PMS_P2;Temp;Humidity;BMP_temperature;BMP_pressure;BME280_temperature;BME280_humidity;BME280_pressure;Samples;Min_cycle;Max_cycle;Signal;HPM_P1;HPM_P2
2021/12/13 00:01:44;;;;;;;53.13;46.33;;;23.20;38.10;;;;;;4795376;55;21294;-42
2021/12/13 00:06:49;;;;;;;52.55;46.35;;;23.20;38.10;;;;;;4972122;55;21006;-40
2021/12/13 00:11:55;;;;;;;51.45;44.70;;;23.30;38.20;;;;;;4830376;55;21045;-42
2021/12/13 00:17:23;;;;;;;52.03;45.45;;;23.20;38.10;;;;;;4748050;55;21017;-33
2021/12/13 00:22:36;;;;;;;50.63;44.08;;;23.20;38.10;;;;;;4757355;55;21558;-39
2021/12/13 00:27:47;;;;;;;49.42;42.78;;;23.20;38.10;;;;;;4836960;55;21089;-34
2021/12/13 00:39:45;;;;;;;49.33;43.92;;;23.20;38.20;;;;;;5039239;55;21010;-39
2021/12/13 00:44:53;;;;;;;46.90;40.97;;;23.20;38.10;;;;;;4775443;55;21515;-40
2021/12/13 00:50:05;;;;;;;45.17;38.95;;;23.20;38.10;;;;;;4747182;58;21063;-41
2021/12/13 00:55:22;;;;;;;47.30;41.05;;;23.20;38.10;;;;;;4748385;55;21060;-41
2021/12/13 01:00:50;;;;;;;45.28;38.95;;;23.20;38.10;;;;;;4895964;55;21038;-42
2021/12/13 01:07:54;;;;;;;47.03;40.83;;;23.20;38.10;;;;;;4944434;55;21050;-37
2021/12/13 01:12:58;;;;;;;44.80;38.72;;;23.20;38.10;;;;;;5012400;55;21143;-37
2021/12/13 01:18:27;;;;;;;43.65;38.75;;;23.20;38.10;;;;;;4872374;55;21484;-39
2021/12/13 01:23:49;;;;;;;42.17;37.58;;;23.20;38.10;;;;;;4777565;55;21476;-35
2021/12/13 01:28:58;;;;;;;42.25;36.33;;;23.10;38.00;;;;;;4823884;55;21528;-41
2021/12/13 01:34:02;;;;;;;40.85;36.38;;;23.10;38.00;;;;;;4748068;58;21041;-38
2021/12/13 01:39:10;;;;;;;39.88;35.42;;;23.10;38.00;;;;;;4807622;55;21052;-34
2021/12/13 01:44:30;;;;;;;40.20;35.55;;;23.10;38.00;;;;;;4835519;55;21077;-37
2021/12/13 01:49:36;;;;;;;40.03;34.60;;;23.10;38.00;;;;;;4885872;55;21063;-48
2021/12/13 01:54:39;;;;;;;39.90;35.10;;;23.10;38.00;;;;;;4875804;55;21476;-37
2021/12/13 02:00:17;;;;;;;38.17;33.75;;;23.10;38.00;;;;;;4936563;55;21412;-43
2021/12/13 02:05:25;;;;;;;38.20;33.35;;;23.10;38.20;;;;;;5160780;55;21535;-39
2021/12/13 02:10:41;;;;;;;37.38;32.85;;;23.10;38.00;;;;;;4749879;55;21004;-38
2021/12/13 02:21:17;;;;;;;36.67;31.75;;;23.10;38.00;;;;;;4747467;55;21056;-45
2021/12/13 02:26:19;;;;;;;34.80;30.95;;;23.10;38.00;;;;;;4875041;55;21440;-38
2021/12/13 02:31:27;;;;;;;35.95;31.52;;;23.10;38.00;;;;;;4778901;54;21153;-40
2021/12/13 02:36:51;;;;;;;31.65;28.23;;;23.10;38.00;;;;;;4773340;55;20965;-40
2021/12/13 02:41:54;;;;;;;33.92;30.25;;;23.10;38.00;;;;;;4766044;55;20965;-48
2021/12/13 02:46:58;;;;;;;33.72;30.08;;;23.10;38.00;;;;;;4947643;55;21038;-36
2021/12/13 02:52:04;;;;;;;32.33;28.90;;;23.00;38.00;;;;;;4825068;55;21010;-36
2021/12/13 02:57:21;;;;;;;32.58;29.02;;;23.00;37.90;;;;;;4747932;58;21002;-36
2021/12/13 03:02:36;;;;;;;31.37;27.98;;;23.00;38.00;;;;;;4811486;55;21120;-39
2021/12/13 03:07:40;;;;;;;31.35;27.95;;;23.00;37.90;;;;;;4776779;55;21010;-40
2021/12/13 03:12:41;;;;;;;30.92;27.23;;;23.00;37.90;;;;;;4774034;55;21010;-40
2021/12/13 03:17:52;;;;;;;30.92;27.62;;;23.00;37.90;;;;;;4853045;55;21006;-41
2021/12/13 03:24:46;;;;;;;28.95;25.95;;;23.00;37.90;;;;;;4818643;55;20994;-40
2021/12/13 03:30:13;;;;;;;29.70;26.00;;;23.00;37.90;;;;;;4832010;55;21524;-43
2021/12/13 03:35:31;;;;;;;;;;;23.00;37.90;;;;;;4879186;55;21029;-47
2021/12/13 03:40:34;;;;;;;29.40;26.27;;;23.00;37.80;;;;;;4932889;55;20068;-42
2021/12/13 03:45:40;;;;;;;27.70;24.65;;;23.10;37.80;;;;;;4913419;55;21001;-39
2021/12/13 03:50:46;;;;;;;26.65;23.30;;;23.00;37.70;;;;;;5064023;55;21077;-42
2021/12/13 03:55:50;;;;;;;26.80;24.00;;;23.00;37.70;;;;;;4763480;55;21156;-48
2021/12/13 04:01:04;;;;;;;26.33;23.35;;;23.00;37.70;;;;;;4747910;58;21069;-36
2021/12/13 04:06:05;;;;;;;26.60;23.80;;;23.00;37.70;;;;;;4748351;58;21058;-48
2021/12/13 04:11:09;;;;;;;27.42;24.45;;;23.00;37.70;;;;;;4747336;58;21017;-45
2021/12/13 04:16:35;;;;;;;26.25;23.45;;;23.00;37.70;;;;;;4748043;58;21042;-38
2021/12/13 04:21:57;;;;;;;26.60;23.12;;;23.00;37.70;;;;;;4815149;55;21616;-49
2021/12/13 04:27:05;;;;;;;24.90;22.30;;;23.00;37.70;;;;;;5021390;55;21034;-38
2021/12/13 04:32:30;;;;;;;24.20;21.60;;;23.10;37.70;;;;;;4797242;55;21002;-37
2021/12/13 04:37:38;;;;;;;25.40;22.67;;;23.10;37.60;;;;;;4797791;55;21131;-34
2021/12/13 04:42:42;;;;;;;24.15;21.58;;;23.10;37.60;;;;;;4857444;55;21049;-38
2021/12/13 04:49:15;;;;;;;23.10;20.67;;;23.10;37.50;;;;;;4773563;55;21001;-40
2021/12/13 04:54:16;;;;;;;21.92;19.60;;;23.20;37.60;;;;;;4766007;55;20970;-39
2021/12/13 04:59:18;;;;;;;23.62;21.12;;;23.20;37.50;;;;;;4851959;55;21598;-39
2021/12/13 05:04:20;;;;;;;22.35;20.02;;;23.20;37.60;;;;;;4747749;58;21029;-38
2021/12/13 05:09:23;;;;;;;22.60;20.12;;;23.20;37.50;;;;;;4802348;55;21563;-34
2021/12/13 05:14:47;;;;;;;23.23;20.50;;;23.20;37.50;;;;;;4833410;55;21064;-37
2021/12/13 05:19:53;;;;;;;20.92;18.73;;;23.20;37.60;;;;;;5012174;55;21033;-44
2021/12/13 05:25:00;;;;;;;22.20;19.90;;;23.20;37.50;;;;;;5181028;55;21563;-50
2021/12/13 05:30:23;;;;;;;21.65;19.35;;;23.20;37.50;;;;;;4746759;55;21568;-39
2021/12/13 05:35:29;;;;;;;21.27;19.05;;;23.30;37.50;;;;;;4757941;55;21119;-42
2021/12/13 05:40:43;;;;;;;21.65;19.35;;;23.30;37.50;;;;;;4845212;55;21504;-37
2021/12/13 05:46:01;;;;;;;20.08;17.87;;;23.30;37.50;;;;;;4748161;58;21519;-36
2021/12/13 05:51:17;;;;;;;19.83;17.73;;;23.30;37.50;;;;;;5027232;55;21013;-32
2021/12/13 05:56:19;;;;;;;20.53;18.30;;;23.30;37.50;;;;;;4748415;58;21121;-35
2021/12/13 06:01:29;;;;;;;20.10;17.95;;;23.30;37.70;;;;;;5161504;55;21105;-37
2021/12/13 06:06:34;;;;;;;20.60;18.40;;;23.30;38.00;;;;;;4849061;55;21045;-34
2021/12/13 06:11:39;;;;;;;19.33;17.25;;;23.30;38.20;;;;;;4782298;55;21041;-38
2021/12/13 06:16:47;;;;;;;21.20;18.60;;;23.30;38.30;;;;;;4870667;55;20993;-39
2021/12/13 06:22:33;;;;;;;21.27;19.00;;;23.30;38.40;;;;;;4747971;58;21070;-40
2021/12/13 06:27:51;;;;;;;20.23;18.05;;;23.30;38.50;;;;;;4832698;55;21029;-39
2021/12/13 06:32:59;;;;;;;20.98;18.33;;;23.30;38.40;;;;;;4856831;55;21057;-40
2021/12/13 06:39:34;;;;;;;21.65;19.35;;;23.30;38.40;;;;;;4856653;55;21049;-38
2021/12/13 06:44:40;;;;;;;21.20;18.98;;;23.30;38.40;;;;;;4896629;55;21002;-38
2021/12/13 06:49:58;;;;;;;24.08;20.10;;;23.30;38.40;;;;;;4908883;55;21005;-37
2021/12/13 06:55:09;;;;;;;22.23;19.83;;;23.30;38.40;;;;;;4776903;55;21484;-44
2021/12/13 07:00:26;;;;;;;23.00;20.23;;;23.30;38.30;;;;;;4749823;55;21006;-37
2021/12/13 07:05:43;;;;;;;24.02;20.55;;;23.20;38.30;;;;;;4782370;55;21507;-36
2021/12/13 07:10:58;;;;;;;;;;;23.30;38.30;;;;;;4893276;55;21053;-43
2021/12/13 07:16:22;;;;;;;27.67;24.00;;;23.30;38.30;;;;;;5166474;55;20072;-32
2021/12/13 07:21:30;;;;;;;26.10;23.27;;;23.30;38.30;;;;;;4802501;55;21532;-37
2021/12/13 07:27:33;;;;;;;26.12;23.08;;;23.30;38.30;;;;;;4889372;55;21066;-38
2021/12/13 07:32:42;;;;;;;28.33;25.20;;;23.30;38.30;;;;;;4838036;55;21551;-34
2021/12/13 07:38:26;;;;;;;29.23;23.95;;;23.30;38.30;;;;;;4802586;55;21002;-34
2021/12/13 07:43:39;;;;;;;31.12;26.37;;;23.20;38.20;;;;;;4793716;55;21531;-33
2021/12/13 07:49:04;;;;;;;31.83;26.92;;;23.20;38.20;;;;;;4790089;55;21066;-34
2021/12/13 07:54:13;;;;;;;33.47;28.25;;;23.20;38.20;;;;;;4896694;55;21045;-36
2021/12/13 07:59:30;;;;;;;33.30;28.27;;;23.20;38.20;;;;;;4844833;55;21455;-35
2021/12/13 08:05:22;;;;;;;35.63;29.45;;;23.20;38.80;;;;;;4927223;55;20978;-37
2021/12/13 08:10:32;;;;;;;40.20;33.17;;;23.20;38.20;;;;;;4755752;55;20982;-27
2021/12/13 08:15:50;;;;;;;42.45;34.75;;;23.20;38.30;;;;;;4844907;55;21033;-32
2021/12/13 08:21:00;;;;;;;42.92;35.47;;;23.30;39.10;;;;;;4770635;55;20974;-33
2021/12/13 08:26:06;;;;;;;46.15;38.13;;;23.40;39.50;;;;;;4902327;55;21432;-35
2021/12/13 08:31:17;;;;;;;45.00;38.03;;;23.40;39.80;;;;;;4747301;55;21093;-37
2021/12/13 08:36:32;;;;;;;47.42;38.22;;;23.50;40.20;;;;;;4809084;55;20994;-33
2021/12/13 08:43:39;;;;;;;50.30;40.25;;;23.50;40.50;;;;;;4784076;55;21528;-35
2021/12/13 08:48:50;;;;;;;49.60;40.30;;;23.60;40.80;;;;;;4883421;55;21001;-33
2021/12/13 08:54:12;;;;;;;49.05;41.05;;;23.60;41.00;;;;;;4886709;55;21005;-33
2021/12/13 08:59:26;;;;;;;59.25;47.88;;;23.70;41.10;;;;;;4812527;55;21567;-31
2021/12/13 09:04:41;;;;;;;66.55;52.05;;;23.70;41.00;;;;;;4794029;55;21451;-28
2021/12/13 09:09:45;;;;;;;67.25;52.33;;;23.70;41.00;;;;;;4771902;55;21045;-34
2021/12/13 09:14:51;;;;;;;72.50;54.75;;;23.80;40.80;;;;;;4765622;55;21077;-28
2021/12/13 09:20:19;;;;;;;67.67;54.13;;;23.80;40.80;;;;;;4756945;55;21614;-31
2021/12/13 09:25:41;;;;;;;71.35;55.53;;;23.80;40.80;;;;;;4838019;55;21437;-34
2021/12/13 09:31:16;;;;;;;73.75;59.20;;;23.90;40.80;;;;;;4760508;55;21029;-35
2021/12/13 09:36:27;;;;;;;72.28;59.10;;;23.90;41.20;;;;;;4809899;55;21543;-33
2021/12/13 09:41:52;;;;;;;72.15;58.03;;;23.80;41.70;;;;;;4747163;58;21492;-37
2021/12/13 09:47:24;;;;;;;75.50;60.35;;;23.80;42.00;;;;;;4931373;55;21476;-35
2021/12/13 09:52:55;;;;;;;76.12;60.10;;;23.70;42.30;;;;;;4977110;55;20989;-33
2021/12/13 09:58:05;;;;;;;79.60;62.80;;;23.70;42.70;;;;;;4811091;55;20989;-33
2021/12/13 10:03:10;;;;;;;78.53;64.25;;;23.70;43.60;;;;;;4858821;55;21079;-31
2021/12/13 10:08:17;;;;;;;82.55;67.85;;;23.70;43.10;;;;;;4752090;55;21081;-34
2021/12/13 10:13:25;;;;;;;86.03;67.75;;;23.60;43.40;;;;;;4762382;55;21053;-29
2021/12/13 10:18:30;;;;;;;84.68;69.90;;;23.60;43.60;;;;;;4751267;55;21014;-33
2021/12/13 10:23:37;;;;;;;86.87;69.75;;;23.50;43.80;;;;;;4820571;55;20998;-36
2021/12/13 10:28:41;;;;;;;92.00;74.93;;;23.50;44.10;;;;;;4769370;55;21137;-32
2021/12/13 10:33:47;;;;;;;91.07;72.37;;;23.50;44.30;;;;;;5152674;55;21456;-31
2021/12/13 10:38:52;;;;;;;90.40;70.60;;;23.40;44.30;;;;;;4886609;55;21009;-35
2021/12/13 10:43:57;;;;;;;95.85;75.28;;;23.40;44.60;;;;;;4823465;55;20997;-30
2021/12/13 10:49:06;;;;;;;99.07;78.43;;;23.40;44.80;;;;;;4746982;58;21010;-29
2021/12/13 10:54:17;;;;;;;106.95;80.90;;;23.40;44.90;;;;;;4757823;55;21070;-35
2021/12/13 10:59:21;;;;;;;107.37;84.20;;;23.40;45.20;;;;;;4835774;55;21049;-33
2021/12/13 11:04:33;;;;;;;106.22;82.37;;;23.30;45.20;;;;;;4747864;58;20997;-35
2021/12/13 11:09:37;;;;;;;107.78;86.10;;;23.30;45.40;;;;;;4783332;55;21511;-34
2021/12/13 11:14:41;;;;;;;104.97;84.43;;;23.30;45.60;;;;;;4825184;55;21816;-36
2021/12/13 11:19:47;;;;;;;115.62;89.37;;;23.30;45.70;;;;;;4802666;55;21524;-34
2021/12/13 11:24:54;;;;;;;111.22;88.15;;;23.30;45.70;;;;;;4991007;55;21476;-36
2021/12/13 11:29:55;;;;;;;116.53;91.50;;;23.30;45.90;;;;;;4800514;55;21148;-29
2021/12/13 11:35:53;;;;;;;117.05;91.03;;;23.30;46.00;;;;;;4828447;55;21005;-30
2021/12/13 11:43:53;;;;;;;120.05;94.00;;;23.30;46.10;;;;;;4747439;58;21052;-31
2021/12/13 11:49:15;;;;;;;116.53;94.28;;;23.20;46.20;;;;;;4763379;54;21061;-34
2021/12/13 11:54:53;;;;;;;120.62;97.20;;;23.20;46.30;;;;;;4764329;55;21113;-31
2021/12/13 12:07:00;;;;;;;126.65;98.65;;;23.20;46.40;;;;;;4792764;55;21030;-34
2021/12/13 12:14:05;;;;;;;132.85;106.72;;;23.20;46.50;;;;;;4747873;58;21005;-34
2021/12/13 12:19:14;;;;;;;134.93;108.20;;;23.20;46.70;;;;;;4778952;55;21535;-29
2021/12/13 12:24:25;;;;;;;141.12;111.62;;;23.10;46.60;;;;;;4859378;55;21468;-30
2021/12/13 12:29:39;;;;;;;137.90;110.28;;;23.10;46.60;;;;;;4782303;55;21050;-28
2021/12/13 12:34:56;;;;;;;141.12;114.40;;;23.10;46.60;;;;;;4803173;55;21013;-34
2021/12/13 12:42:33;;;;;;;177.82;127.93;;;23.10;46.70;;;;;;4888623;55;21138;-33
2021/12/13 12:49:11;;;;;;;165.10;127.47;;;23.00;45.00;;;;;;4887505;55;21017;-35
2021/12/13 12:54:16;;;;;;;178.40;132.77;;;22.90;45.20;;;;;;4860809;55;20989;-35
2021/12/13 12:59:31;;;;;;;160.30;122.45;;;22.90;45.00;;;;;;4788080;55;20982;-35
2021/12/13 13:04:42;;;;;;;162.70;124.78;;;22.90;45.00;;;;;;4830743;55;22684;-34
2021/12/13 13:13:19;;;;;;;172.50;131.40;;;22.80;44.90;;;;;;4747406;55;21096;-33
2021/12/13 13:18:25;;;;;;;176.87;134.93;;;22.80;44.80;;;;;;4854966;55;21556;-36
2021/12/13 13:23:35;;;;;;;170.02;129.75;;;22.80;45.10;;;;;;4816589;55;20970;-37
2021/12/13 13:28:45;;;;;;;170.30;130.25;;;22.90;45.30;;;;;;4822121;55;21097;-35
2021/12/13 13:34:08;;;;;;;170.48;133.07;;;22.80;45.30;;;;;;4845761;55;21075;-27
2021/12/13 13:39:19;;;;;;;177.93;140.75;;;22.90;45.70;;;;;;4874596;55;20986;-35
2021/12/13 13:44:24;;;;;;;172.90;131.93;;;22.90;45.80;;;;;;4749421;55;20993;-36
2021/12/13 13:49:25;;;;;;;175.90;133.87;;;22.90;45.90;;;;;;4747198;55;21096;-33
2021/12/13 13:54:29;;;;;;;168.75;132.60;;;22.90;46.00;;;;;;4819211;55;21021;-28
2021/12/13 13:59:30;;;;;;;174.45;134.52;;;22.90;46.10;;;;;;4806321;55;21110;-36
2021/12/13 14:04:40;;;;;;;176.77;135.60;;;22.90;46.30;;;;;;4812425;55;21054;-36
2021/12/13 14:09:54;;;;;;;177.65;137.57;;;22.90;46.30;;;;;;4747244;55;21516;-36
2021/12/13 14:15:03;;;;;;;176.00;137.12;;;22.90;46.40;;;;;;4832598;55;20990;-30
2021/12/13 14:20:34;;;;;;;167.43;130.65;;;22.90;46.50;;;;;;4880141;55;20990;-33
2021/12/13 14:25:38;;;;;;;174.60;136.15;;;22.90;46.60;;;;;;4764554;55;21069;-35
2021/12/13 14:30:44;;;;;;;168.87;135.90;;;22.90;46.80;;;;;;4754433;55;21053;-33
2021/12/13 14:35:45;;;;;;;175.43;138.00;;;22.90;46.90;;;;;;4789242;55;21010;-31
2021/12/13 14:40:54;;;;;;;178.15;137.20;;;22.90;47.70;;;;;;4781423;55;21064;-34
2021/12/13 14:46:01;;;;;;;171.25;131.75;;;22.90;47.10;;;;;;4787296;55;20985;-31
2021/12/13 14:51:06;;;;;;;166.37;130.07;;;22.90;47.30;;;;;;4845743;55;21064;-35
2021/12/13 14:56:20;;;;;;;169.13;133.75;;;22.90;47.30;;;;;;4805741;55;21059;-34
2021/12/13 15:01:26;;;;;;;168.52;132.10;;;22.90;47.30;;;;;;4836675;55;21026;-35
2021/12/13 15:06:27;;;;;;;171.48;131.85;;;22.90;47.40;;;;;;4859593;55;21053;-35
2021/12/13 15:11:36;;;;;;;166.02;135.02;;;22.90;47.50;;;;;;4936792;55;20994;-31
2021/12/13 15:16:40;;;;;;;166.93;132.23;;;22.90;47.60;;;;;;4748973;55;21021;-33
2021/12/13 15:21:48;;;;;;;169.93;135.73;;;22.90;48.40;;;;;;4805225;55;21063;-29
2021/12/13 15:27:12;;;;;;;173.00;136.00;;;22.90;47.80;;;;;;4790905;55;21053;-34
2021/12/13 15:32:17;;;;;;;169.52;134.52;;;22.90;47.90;;;;;;4894174;55;21036;-36
2021/12/13 15:37:35;;;;;;;172.87;134.75;;;22.90;47.80;;;;;;4755377;55;20977;-31
2021/12/13 15:42:39;;;;;;;164.70;131.90;;;22.80;47.70;;;;;;4747899;58;21610;-37
2021/12/13 15:48:07;;;;;;;175.62;135.90;;;22.80;47.70;;;;;;4799461;55;21046;-27
2021/12/13 15:53:14;;;;;;;175.00;135.60;;;22.80;47.70;;;;;;4761233;55;21578;-37
2021/12/13 15:58:33;;;;;;;175.87;138.48;;;22.80;47.70;;;;;;4749383;55;21050;-36
2021/12/13 16:03:36;;;;;;;182.32;140.65;;;22.70;47.60;;;;;;4753133;55;20993;-37
2021/12/13 16:11:48;;;;;;;172.55;134.43;;;22.70;47.50;;;;;;4830581;55;21013;-33
2021/12/13 16:17:05;;;;;;;177.93;139.32;;;22.60;47.40;;;;;;4824239;55;21061;-40
2021/12/13 16:22:32;;;;;;;171.52;131.37;;;22.50;47.30;;;;;;4845281;55;21037;-42
2021/12/13 16:27:45;;;;;;;182.25;142.37;;;22.50;47.20;;;;;;4756188;55;21038;-39
2021/12/13 16:32:47;;;;;;;192.98;145.50;;;22.40;47.20;;;;;;4748072;58;21073;-40
2021/12/13 16:37:50;;;;;;;185.93;144.50;;;22.40;47.10;;;;;;4817717;55;21030;-36
2021/12/13 16:43:06;;;;;;;187.20;147.27;;;22.30;47.00;;;;;;4788947;55;21034;-37
2021/12/13 16:48:07;;;;;;;185.15;143.95;;;22.30;46.90;;;;;;5023293;55;21017;-36
2021/12/13 16:53:07;;;;;;;188.12;144.98;;;22.30;46.90;;;;;;4748215;58;21044;-35
2021/12/13 16:58:09;;;;;;;176.85;134.23;;;22.20;46.70;;;;;;4821351;55;21127;-35
2021/12/13 17:03:14;;;;;;;187.65;142.35;;;22.20;46.60;;;;;;4807308;54;21006;-34
2021/12/13 17:08:22;;;;;;;189.18;147.75;;;22.20;46.70;;;;;;4900939;55;21006;-35
2021/12/13 17:13:34;;;;;;;;;;;22.20;46.60;;;;;;4822158;55;20990;-37
2021/12/13 17:19:16;;;;;;;186.98;144.85;;;22.10;46.50;;;;;;4747936;58;20161;-36
2021/12/13 17:24:27;;;;;;;183.95;144.50;;;22.10;46.50;;;;;;4886538;55;21487;-35
2021/12/13 17:29:47;;;;;;;184.20;142.43;;;22.10;46.50;;;;;;4747188;58;21488;-36
2021/12/13 17:35:04;;;;;;;192.90;149.68;;;22.10;46.40;;;;;;4940050;55;20997;-35
2021/12/13 17:40:31;;;;;;;182.02;140.43;;;22.00;46.30;;;;;;4842228;55;21041;-30
2021/12/13 17:45:57;;;;;;;176.85;138.25;;;22.00;46.40;;;;;;4750967;55;21002;-37
2021/12/13 17:51:17;;;;;;;182.75;138.15;;;22.00;46.30;;;;;;5103403;55;21030;-38
2021/12/13 17:56:33;;;;;;;194.07;151.35;;;21.90;46.20;;;;;;4841841;55;21448;-35
2021/12/13 18:02:01;;;;;;;199.77;151.63;;;22.00;46.30;;;;;;4777321;55;21068;-36
2021/12/13 18:07:05;;;;;;;198.32;154.43;;;22.00;46.90;;;;;;4851947;55;21010;-41
2021/12/13 18:12:56;;;;;;;186.93;146.48;;;21.90;46.30;;;;;;4942120;55;21018;-36
2021/12/13 18:18:17;;;;;;;187.77;144.20;;;21.90;46.20;;;;;;4812949;55;21054;-39
2021/12/13 18:23:34;;;;;;;194.00;150.32;;;21.90;46.20;;;;;;4778909;55;20985;-36
2021/12/13 18:28:42;;;;;;;193.57;145.12;;;21.90;46.20;;;;;;4837222;55;21053;-32
2021/12/13 18:34:11;;;;;;;195.23;147.60;;;21.80;46.20;;;;;;4821072;55;21001;-36
2021/12/13 18:39:21;;;;;;;199.18;152.93;;;21.80;46.10;;;;;;4835433;55;21026;-39
2021/12/13 18:44:38;;;;;;;192.87;148.18;;;21.80;46.10;;;;;;4757277;55;20985;-40
2021/12/13 18:50:29;;;;;;;195.50;152.18;;;21.80;46.10;;;;;;4772048;55;21520;-37
2021/12/13 18:55:36;;;;;;;198.20;151.82;;;21.80;46.10;;;;;;4798410;55;21532;-38
2021/12/13 19:00:53;;;;;;;193.18;149.40;;;21.70;46.00;;;;;;4747495;55;21548;-40
2021/12/13 19:06:02;;;;;;;194.95;151.52;;;21.80;46.00;;;;;;4847680;55;20981;-38
2021/12/13 19:13:52;;;;;;;194.43;151.57;;;21.70;45.90;;;;;;4809922;55;21061;-39
2021/12/13 19:18:59;;;;;;;193.00;150.52;;;21.70;46.00;;;;;;5013319;55;21001;-35
2021/12/13 19:27:55;;;;;;;183.87;141.48;;;21.70;45.90;;;;;;4868632;55;21037;-41
2021/12/13 19:34:34;;;;;;;190.73;145.07;;;21.70;45.90;;;;;;4850839;55;21480;-37
2021/12/13 19:39:48;;;;;;;192.87;149.57;;;21.70;45.90;;;;;;4846590;55;21323;-40
2021/12/13 19:44:54;;;;;;;196.50;149.45;;;21.70;46.00;;;;;;4824976;55;20974;-38
2021/12/13 19:50:18;;;;;;;193.37;151.35;;;21.70;45.90;;;;;;4796012;55;21014;-40
2021/12/13 19:55:25;;;;;;;191.73;149.93;;;21.60;45.80;;;;;;4747722;58;21041;-40
2021/12/13 20:00:57;;;;;;;195.55;151.90;;;21.60;45.70;;;;;;4883584;55;21500;-44
2021/12/13 20:06:03;;;;;;;193.85;151.48;;;21.60;45.70;;;;;;4777498;55;21062;-38
2021/12/13 20:11:30;;;;;;;193.60;150.03;;;21.60;45.70;;;;;;4747575;58;21018;-35
2021/12/13 20:17:55;;;;;;;191.55;149.02;;;21.60;45.70;;;;;;5040683;55;21547;-35
2021/12/13 20:23:02;;;;;;;185.85;144.82;;;21.60;45.70;;;;;;4991372;54;21492;-39
2021/12/13 20:28:13;;;;;;;188.60;147.00;;;21.60;45.70;;;;;;4806715;55;21021;-42
2021/12/13 20:35:09;;;;;;;189.98;146.85;;;21.60;45.70;;;;;;4748184;58;21005;-40
2021/12/13 20:43:58;;;;;;;189.43;147.23;;;21.60;45.70;;;;;;4855235;55;20978;-35
2021/12/13 20:49:12;;;;;;;201.77;153.82;;;21.50;45.60;;;;;;4842072;54;21021;-39
2021/12/13 20:54:15;;;;;;;185.05;144.35;;;21.50;45.60;;;;;;4774341;55;20986;-40
2021/12/13 20:59:31;;;;;;;185.05;142.62;;;21.50;45.60;;;;;;4766832;55;21603;-40
2021/12/13 21:04:46;;;;;;;191.02;151.15;;;21.50;45.60;;;;;;4868048;55;21061;-36
2021/12/13 21:09:59;;;;;;;178.20;139.05;;;21.50;45.60;;;;;;4818293;55;21475;-34
2021/12/13 21:16:11;;;;;;;181.15;140.57;;;21.50;45.60;;;;;;4903186;55;21049;-39
2021/12/13 21:21:28;;;;;;;182.00;141.25;;;21.50;45.50;;;;;;4757257;55;21080;-40
2021/12/13 21:26:45;;;;;;;185.57;142.55;;;21.40;45.40;;;;;;4825377;55;21085;-41
2021/12/13 21:31:55;;;;;;;184.35;141.18;;;21.50;45.40;;;;;;5227318;55;21013;-34
2021/12/13 21:42:28;;;;;;;189.85;147.73;;;21.40;44.90;;;;;;4747842;55;21022;-39
2021/12/13 21:47:41;;;;;;;195.15;150.77;;;21.40;45.20;;;;;;4840898;55;21013;-39
2021/12/13 21:52:49;;;;;;;195.50;147.07;;;21.40;45.10;;;;;;5211431;55;20973;-38
2021/12/13 21:58:12;;;;;;;193.32;148.20;;;21.40;45.00;;;;;;4823297;55;21054;-39
2021/12/13 22:03:16;;;;;;;191.12;144.82;;;21.40;45.00;;;;;;4793331;55;21041;-38
2021/12/13 22:08:22;;;;;;;196.50;149.93;;;21.40;44.90;;;;;;4840331;55;21077;-37
2021/12/13 22:13:31;;;;;;;195.95;151.87;;;21.40;44.90;;;;;;4785130;55;20998;-38
2021/12/13 22:18:40;;;;;;;193.90;147.62;;;21.30;44.90;;;;;;4946157;55;21097;-38
2021/12/13 22:23:49;;;;;;;198.95;149.38;;;21.30;44.90;;;;;;5129387;55;21009;-41
2021/12/13 22:28:50;;;;;;;199.87;150.62;;;21.30;44.80;;;;;;4780976;55;21053;-37
2021/12/13 22:33:56;;;;;;;191.27;146.40;;;21.30;44.80;;;;;;4909850;55;21425;-39
2021/12/13 22:38:58;;;;;;;201.73;153.82;;;21.30;44.70;;;;;;4897676;55;21066;-40
2021/12/13 22:44:12;;;;;;;201.10;151.48;;;21.30;44.70;;;;;;4748078;55;21056;-39
2021/12/13 22:49:39;;;;;;;199.45;153.20;;;21.30;44.70;;;;;;4898447;55;21050;-35
2021/12/13 22:54:41;;;;;;;207.20;152.52;;;21.30;44.70;;;;;;4822848;55;21081;-35
2021/12/13 22:59:46;;;;;;;202.02;154.20;;;21.30;44.70;;;;;;4771500;55;20990;-39
2021/12/13 23:04:58;;;;;;;203.40;153.35;;;21.30;44.70;;;;;;4766082;55;21568;-40
2021/12/13 23:10:53;;;;;;;191.93;144.18;;;21.30;44.60;;;;;;5034675;55;21050;-41
2021/12/13 23:16:03;;;;;;;201.45;152.30;;;21.30;44.60;;;;;;5088177;55;21492;-39
2021/12/13 23:21:05;;;;;;;205.00;154.65;;;21.20;44.50;;;;;;4747956;55;21046;-40
2021/12/13 23:26:06;;;;;;;190.73;144.73;;;21.20;45.10;;;;;;4982252;55;21013;-38
2021/12/13 23:31:11;;;;;;;195.62;143.20;;;21.30;44.50;;;;;;4826405;54;21057;-38
2021/12/13 23:36:21;;;;;;;203.15;153.30;;;21.20;44.40;;;;;;4837832;55;21539;-39
2021/12/13 23:46:58;;;;;;;202.87;149.60;;;21.20;44.40;;;;;;4747535;55;21042;-42
2021/12/13 23:52:01;;;;;;;202.07;151.03;;;21.20;44.30;;;;;;4748651;58;21579;-40
2021/12/13 23:57:03;;;;;;;193.57;142.98;;;21.20;44.30;;;;;;4748120;58;20997;-37
